• Join FlightAware (Why Join?)
  • Login
  • US Flag 
05:01PM EDT


 

Airport Tracker/Info


-or-


 

Live Flight TrackerFlight Track Log ✈ AAL963 ✈ 27-Jul-2013 ✈ KDFW - SBGR / GRU

Flight Track Log - Related Links

Times and Time Zones

All times are in EDT time to prevent confusion due to time zone crossing. See the AAL963 flight status page for this flight to view local times or setup timezone preferences in your user account.

Time Position Orientation Groundspeed Altitude Reporting Facility
EDT Latitude Longitude Course Direction KTS MPH feet Rate Location/Type
10:03PM 32.8530 -97.0270 169° South 189 217 2,100  Level FlightAware
10:04PM 32.8280 -97.0200 167° South 215 247 2,400 720 Climbing FlightAware
10:04PM 32.7980 -97.0120 167° South 244 281 2,800 1,140 Climbing FlightAware
10:05PM 32.7660 -97.0040 168° South 260 299 3,500 1,560 Climbing FlightAware
10:05PM 32.7380 -96.9940 163° South 271 312 4,200 1,920 Climbing FlightAware
10:06PM 32.7030 -96.9810 163° South 273 314 5,200 2,280 Climbing FlightAware
10:06PM 32.6750 -96.9700 162° South 271 312 6,200 2,040 Climbing FlightAware
10:07PM 32.6240 -96.9500 162° South 282 325 7,500 1,860 Climbing FlightAware
10:07PM 32.5950 -96.9380 161° South 283 326 8,300 1,860 Climbing FlightAware
10:08PM 32.5640 -96.9260 162° South 291 335 9,000 1,800 Climbing FlightAware
10:08PM 32.5220 -96.9090 161° South 294 338 10,000 1,380 Climbing FlightAware
10:09PM 32.4680 -96.8880 162° South 323 372 10,700 960 Climbing FlightAware
10:09PM 32.4130 -96.8660 161° South 349 402 11,300 900 Climbing FlightAware
10:10PM 32.3480 -96.8410 162° South 374 430 11,900 1,140 Climbing FlightAware
10:11PM 32.2830 -96.8150 161° South 389 448 12,900 1,500 Climbing FlightAware
10:11PM 32.2090 -96.7870 162° South 399 459 14,000 1,620 Climbing FlightAware
10:12PM 32.1291 -96.7563 162° South 403 464 15,300 1,620 Climbing FlightAware ADS-B
10:13PM 32.0703 -96.7339 162° South 414 476 16,100 1,560 Climbing FlightAware ADS-B
10:13PM 32.0137 -96.7124 162° South 416 479 17,000 1,500 Climbing FlightAware ADS-B
10:14PM 31.9406 -96.6846 162° South 426 490 17,900 1,440 Climbing FlightAware ADS-B
10:14PM 31.8823 -96.6628 162° South 434 499 18,700 1,260 Climbing FlightAware ADS-B
10:15PM 31.8239 -96.6393 161° South 447 514 19,200 1,140 Climbing FlightAware ADS-B
10:15PM 31.7629 -96.6136 160° South 453 521 19,900 1,200 Climbing FlightAware ADS-B
10:17PM 31.6331 -96.5605 161° South 469 540 21,100 1,080 Climbing FlightAware ADS-B
10:17PM 31.5697 -96.5345 161° South 474 545 21,700 1,260 Climbing FlightAware ADS-B
10:18PM 31.5065 -96.5089 161° South 479 551 22,400 1,260 Climbing FlightAware ADS-B
10:18PM 31.4414 -96.4844 162° South 481 554 23,000 1,260 Climbing FlightAware ADS-B
10:19PM 31.3772 -96.4609 163° South 485 558 23,700 1,260 Climbing FlightAware ADS-B
10:19PM 31.3111 -96.4365 162° South 489 563 24,300 1,200 Climbing FlightAware ADS-B
10:20PM 31.2153 -96.4002 161° South 490 564 25,200 1,200 Climbing FlightAware ADS-B
10:20PM 31.1861 -96.3834 152° Southeast 493 567 25,500 960 Climbing FlightAware ADS-B
10:20PM 31.1688 -96.3700 146° Southeast 494 568 25,600 900 Climbing FlightAware ADS-B
10:20PM 31.1517 -96.3532 140° Southeast 495 570 25,800 1,080 Climbing FlightAware ADS-B
10:21PM 31.0905 -96.2612 126° Southeast 496 571 26,600 960 Climbing FlightAware ADS-B
10:22PM 31.0077 -96.1263 126° Southeast 504 580 27,500 780 Climbing FlightAware ADS-B
10:23PM 30.9662 -96.0587 126° Southeast 510 587 27,800 780 Climbing FlightAware ADS-B
10:23PM 30.9243 -95.9908 126° Southeast 513 590 28,300 840 Climbing FlightAware ADS-B
10:24PM 30.8818 -95.9222 126° Southeast 517 595 28,700 780 Climbing FlightAware ADS-B
10:25PM 30.8076 -95.8032 126° Southeast 523 602 29,400 720 Climbing FlightAware ADS-B
10:25PM 30.7676 -95.7467 129° Southeast 527 606 29,700 660 Climbing FlightAware ADS-B
10:25PM 30.7359 -95.7071 133° Southeast 528 608 29,900 660 Climbing FlightAware ADS-B
10:26PM 30.7092 -95.6766 136° Southeast 530 610 30,100 780 Climbing FlightAware ADS-B
10:26PM 30.6551 -95.6168 136° Southeast 533 613 30,500 780 Climbing FlightAware ADS-B
10:27PM 30.6009 -95.5573 137° Southeast 534 615 30,900 780 Climbing FlightAware ADS-B
10:27PM 30.5454 -95.4963 137° Southeast 533 613 31,300 780 Climbing FlightAware ADS-B
10:28PM 30.4905 -95.4358 136° Southeast 533 613 31,700 780 Climbing FlightAware ADS-B
10:28PM 30.4363 -95.3761 136° Southeast 534 615 32,100 780 Climbing FlightAware ADS-B
10:29PM 30.3825 -95.3169 136° Southeast 533 613 32,500 480 Climbing FlightAware ADS-B
10:30PM 30.2545 -95.1766 137° Southeast 532 612 33,000 240 Climbing FlightAware ADS-B
10:30PM 30.2007 -95.1179 137° Southeast 532 612 33,000  Level FlightAware ADS-B
10:32PM 29.9854 -94.8836 137° Southeast 532 612 33,000  Level FlightAware ADS-B
10:34PM 29.7677 -94.6483 137° Southeast 533 613 33,000  Level FlightAware ADS-B
10:36PM 29.5493 -94.4138 137° Southeast 531 611 33,000  Level FlightAware ADS-B
10:38PM 29.3848 -94.2380 137° Southeast 529 609 33,000  Level FlightAware ADS-B
10:38PM 29.3296 -94.1792 137° Southeast 529 609 33,000  Level FlightAware ADS-B
10:39PM 29.2754 -94.1213 137° Southeast 529 609 33,000  Level FlightAware ADS-B
10:39PM 29.2214 -94.0639 137° Southeast 529 609 33,000  Level FlightAware ADS-B
10:40PM 29.1670 -94.0062 137° Southeast 530 610 33,000  Level FlightAware ADS-B
10:41PM 29.0317 -93.8619 137° Southeast 529 609 33,000 -60 Level Houston Center
10:42PM 28.9186 -93.7467 138° Southeast 522 601 32,900  Descending Houston Center
10:43PM 28.8156 -93.6350 136° Southeast 532 612 33,000  Climbing Houston Center
10:44PM 28.7025 -93.5167 137° Southeast 530 610 33,000 -60 Level Houston Center
10:45PM 28.5936 -93.4022 137° Southeast 530 610 32,900  Descending Houston Center
10:46PM 28.4897 -93.2928 137° Southeast 530 610 33,000  Climbing Houston Center
10:47PM 28.3778 -93.1772 138° Southeast 528 608 33,000 -60 Level Houston Center
10:48PM 28.2703 -93.0628 137° Southeast 530 610 32,900  Descending Houston Center
10:49PM 28.1392 -92.9292 138° Southeast 530 610 33,000  Climbing Houston Center
10:50PM 28.0314 -92.8181 138° Southeast 527 606 32,900  Descending Houston Center
10:51PM 27.9222 -92.7086 138° Southeast 526 605 33,000  Climbing Houston Center
10:52PM 27.8147 -92.5950 137° Southeast 527 606 33,000  Level Houston Center
10:53PM 27.7050 -92.4867 139° Southeast 526 605 33,000 -60 Level Houston Center
10:54PM 27.5969 -92.3772 138° Southeast 525 604 32,900  Descending Houston Center
10:55PM 27.4889 -92.2653 137° Southeast 528 608 33,000  Climbing Houston Center
10:57PM 27.3860 -92.1524 138° Southeast  Level FlightAware Approximate
11:04PM 26.6240 -91.5001 144° Southeast  Level FlightAware Approximate
11:05PM 26.5122 -91.4115 145° Southeast  Level FlightAware Approximate
11:06PM 26.4003 -91.3230 145° Southeast  Level FlightAware Approximate
11:07PM 26.2884 -91.2347 145° Southeast  Level FlightAware Approximate
11:08PM 26.1765 -91.1465 145° Southeast  Level FlightAware Approximate
11:09PM 26.0645 -91.0585 145° Southeast  Level FlightAware Approximate
11:10PM 25.9525 -90.9706 145° Southeast  Level FlightAware Approximate
11:11PM 25.8404 -90.8830 145° Southeast  Level FlightAware Approximate
11:12PM 25.7283 -90.7954 145° Southeast  Level FlightAware Approximate
11:13PM 25.6161 -90.7081 145° Southeast  Level FlightAware Approximate
11:14PM 25.5038 -90.6209 145° Southeast  Level FlightAware Approximate
11:15PM 25.3915 -90.5339 145° Southeast  Level FlightAware Approximate
11:16PM 25.2792 -90.4470 145° Southeast  Level FlightAware Approximate
11:17PM 25.1668 -90.3603 145° Southeast  Level FlightAware Approximate
11:18PM 25.0543 -90.2738 145° Southeast  Level FlightAware Approximate
11:19PM 24.9418 -90.1874 145° Southeast  Level FlightAware Approximate
11:20PM 24.8293 -90.1012 145° Southeast  Level FlightAware Approximate
11:21PM 24.7167 -90.0151 145° Southeast  Level FlightAware Approximate
11:22PM 24.6041 -89.9292 145° Southeast  Level FlightAware Approximate
11:23PM 24.4922 -89.8422 138° Southeast  Level FlightAware Approximate
11:24PM 24.3794 -89.7571 146° Southeast  Level FlightAware Approximate
11:25PM 24.2653 -89.6737 146° Southeast  Level FlightAware Approximate
11:26PM 24.1512 -89.5904 146° Southeast  Level FlightAware Approximate
11:27PM 24.0373 -89.5070 145° Southeast  Level FlightAware Approximate
11:28PM 23.9247 -89.4214 145° Southeast  Level FlightAware Approximate
11:29PM 23.8121 -89.3360 145° Southeast  Level FlightAware Approximate
11:29PM 23.6070 -89.1780 145° Southeast 503 579 33,000  Level FlightAware
11:30PM 23.6994 -89.2507 145° Southeast  Level FlightAware Approximate
11:30PM 23.5380 -89.1260 145° Southeast 501 577 33,000  Level FlightAware
11:30PM 23.4800 -89.0810 145° Southeast 501 577 33,000  Level FlightAware
11:31PM 23.3550 -88.9900 146° Southeast 500 575 33,000  Level FlightAware
11:32PM 23.2860 -88.9390 146° Southeast 500 575 33,000  Level FlightAware
11:33PM 23.2100 -88.8810 145° Southeast 500 575 33,000  Level FlightAware
11:33PM 23.1020 -88.8020 146° Southeast 497 572 33,000  Level FlightAware
11:34PM 23.0020 -88.7270 145° Southeast 497 572 33,000  Level FlightAware
11:35PM 22.9350 -88.6780 146° Southeast 495 570 33,000  Level FlightAware
11:36PM 22.8290 -88.5990 146° Southeast 494 568 33,000  Level FlightAware
11:37PM 22.7520 -88.5410 145° Southeast 494 568 33,000  Level FlightAware
11:37PM 22.6570 -88.4730 147° Southeast 490 564 33,000  Level FlightAware
11:38PM 22.5900 -88.4200 144° Southeast 489 563 33,000  Level FlightAware
11:39PM 22.5190 -88.3500 138° Southeast 488 562 33,000  Level FlightAware
11:39PM 22.4470 -88.2760 136° Southeast 488 562 33,000  Level FlightAware
11:40PM 22.3970 -88.2240 136° Southeast 488 562 33,000  Level FlightAware
11:41PM 22.2800 -88.1070 137° Southeast 490 564 33,000  Level FlightAware
11:42PM 22.2290 -88.0530 136° Southeast 490 564 33,000  Level FlightAware
11:43PM 22.1260 -87.9510 137° Southeast 491 565 33,000  Level FlightAware
11:43PM 22.0620 -87.8860 137° Southeast 492 566 33,000  Level FlightAware
11:44PM 21.9880 -87.8120 137° Southeast 493 567 33,000  Level FlightAware
11:45PM 21.9270 -87.7510 137° Southeast 494 568 33,000  Level FlightAware
11:45PM 21.8620 -87.6850 137° Southeast 494 568 33,000  Level FlightAware
11:46PM 21.7770 -87.6010 137° Southeast 495 570 33,000  Level FlightAware
11:47PM 21.7110 -87.5360 138° Southeast 496 571 33,000  Level FlightAware
11:47PM 21.6550 -87.4800 137° Southeast 496 571 33,000  Level FlightAware
11:48PM 21.5730 -87.3980 137° Southeast 494 568 33,000  Level FlightAware
11:49PM 21.5100 -87.3360 138° Southeast 494 568 33,000  Level FlightAware
11:50PM 21.4310 -87.2580 137° Southeast 495 570 33,000  Level FlightAware
11:50PM 21.3620 -87.1900 137° Southeast 495 570 33,000  Level FlightAware
11:51PM 21.2880 -87.1170 137° Southeast 495 570 33,000  Level FlightAware
11:52PM 21.2210 -87.0510 137° Southeast 496 571 33,000  Level FlightAware
11:52PM 21.1600 -86.9910 137° Southeast 497 572 33,000  Level FlightAware
11:53PM 21.0950 -86.9280 138° Southeast 497 572 33,000  Level FlightAware
11:54PM 21.0170 -86.8510 137° Southeast 497 572 33,000  Level FlightAware
11:54PM 20.9560 -86.7920 138° Southeast 497 572 33,000  Level FlightAware
11:55PM 20.8870 -86.7250 138° Southeast 497 572 33,000  Level FlightAware
11:56PM 20.8130 -86.6530 138° Southeast 496 571 33,000  Level FlightAware
11:56PM 20.7610 -86.6020 137° Southeast 496 571 33,000  Level FlightAware
11:57PM 20.6860 -86.5300 138° Southeast 496 571 33,000  Level FlightAware
11:58PM 20.6150 -86.4610 138° Southeast 496 571 33,000  Level FlightAware
11:58PM 20.5410 -86.3900 138° Southeast 496 571 33,000  Level FlightAware
11:59PM 20.4530 -86.3030 137° Southeast 496 571 33,000  Level FlightAware
12:00AM 20.3930 -86.2470 139° Southeast 496 571 33,000  Level FlightAware
12:01AM 20.2840 -86.1410 138° Southeast 495 570 33,000  Level FlightAware
12:02AM 20.1920 -86.0540 138° Southeast 497 572 33,000  Level FlightAware
12:02AM 20.1240 -85.9890 138° Southeast 497 572 33,000  Level FlightAware
12:03AM 20.0630 -85.9300 138° Southeast 498 573 33,000  Level FlightAware
12:04AM 19.9960 -85.8670 139° Southeast 499 574 33,000  Level FlightAware
12:04AM 19.9180 -85.7930 138° Southeast 500 575 33,000  Level FlightAware
12:05AM 19.8410 -85.7200 138° Southeast 502 578 33,000 60 Level FlightAware
12:06AM 19.7710 -85.6550 139° Southeast 503 579 33,100 540 Climbing FlightAware
12:07AM 19.6910 -85.5800 139° Southeast 502 578 33,800 900 Climbing FlightAware
12:07AM 19.6220 -85.5150 138° Southeast 500 575 34,400 720 Climbing FlightAware
12:08AM 19.5180 -85.4170 138° Southeast 502 578 35,000 300 Climbing FlightAware
12:09AM 19.4410 -85.3450 139° Southeast 502 578 35,000  Level FlightAware
12:10AM 19.3690 -85.2780 139° Southeast 503 579 35,000  Level FlightAware
12:11AM 19.2740 -85.1900 139° Southeast 503 579 35,000  Level FlightAware
12:11AM 19.2170 -85.1350 138° Southeast 503 579 35,000  Level FlightAware
12:12AM 19.1470 -85.0680 138° Southeast 503 579 35,000  Level FlightAware
12:13AM 19.0940 -85.0180 138° Southeast 503 579 35,000  Level FlightAware
12:13AM 19.0410 -84.9670 138° Southeast 503 579 35,000  Level FlightAware
12:14AM 18.9700 -84.9000 138° Southeast 503 579 35,000  Level FlightAware
12:15AM 18.9170 -84.8500 138° Southeast 503 579 35,000  Level FlightAware
12:15AM 18.8640 -84.7990 138° Southeast 503 579 35,000  Level FlightAware
12:16AM 18.7940 -84.7320 138° Southeast 503 579 35,000  Level FlightAware
12:17AM 18.7390 -84.6810 139° Southeast 503 579 35,000  Level FlightAware
12:17AM 18.6690 -84.6140 138° Southeast 503 579 35,000  Level FlightAware
12:18AM 18.6160 -84.5630 138° Southeast 503 579 35,000  Level FlightAware
12:19AM 18.5450 -84.4960 138° Southeast 503 579 35,000  Level FlightAware
12:19AM 18.4930 -84.4460 138° Southeast 503 579 35,000  Level FlightAware
12:20AM 18.4350 -84.3920 139° Southeast 503 579 35,000  Level FlightAware
12:21AM 18.3820 -84.3410 138° Southeast 503 579 35,000  Level FlightAware
12:23AM 18.2426 -84.1064 122° Southeast  Level FlightAware Approximate
12:24AM 18.1698 -83.9842 122° Southeast  Level FlightAware Approximate
12:25AM 18.0969 -83.8621 122° Southeast  Level FlightAware Approximate
12:26AM 18.0239 -83.7401 122° Southeast  Level FlightAware Approximate
12:27AM 17.9509 -83.6181 122° Southeast  Level FlightAware Approximate
12:28AM 17.8528 -83.5163 135° Southeast  Level FlightAware Approximate
12:29AM 17.7550 -83.4155 136° Southeast  Level FlightAware Approximate
12:30AM 17.6572 -83.3148 136° Southeast  Level FlightAware Approximate
12:31AM 17.5593 -83.2141 136° Southeast  Level FlightAware Approximate
12:32AM 17.4613 -83.1136 136° Southeast  Level FlightAware Approximate
12:33AM 17.3631 -83.0134 139° Southeast  Level FlightAware Approximate
12:34AM 17.2599 -82.9190 139° Southeast  Level FlightAware Approximate
12:35AM 17.1566 -82.8247 139° Southeast  Level FlightAware Approximate
12:36AM 17.0533 -82.7305 139° Southeast  Level FlightAware Approximate
12:37AM 16.9499 -82.6364 139° Southeast  Level FlightAware Approximate
12:38AM 16.8465 -82.5424 139° Southeast  Level FlightAware Approximate
12:39AM 16.7430 -82.4485 139° Southeast  Level FlightAware Approximate
12:40AM 16.6395 -82.3547 139° Southeast  Level FlightAware Approximate
12:41AM 16.5360 -82.2610 139° Southeast  Level FlightAware Approximate
12:42AM 16.4339 -82.1657 134° Southeast  Level FlightAware Approximate
12:43AM 16.3392 -82.0624 134° Southeast  Level FlightAware Approximate
12:44AM 16.2445 -81.9592 134° Southeast  Level FlightAware Approximate
12:45AM 16.1498 -81.8561 134° Southeast  Level FlightAware Approximate
12:46AM 16.0550 -81.7531 134° Southeast  Level FlightAware Approximate
12:47AM 15.9601 -81.6501 134° Southeast  Level FlightAware Approximate
12:48AM 15.8652 -81.5473 134° Southeast  Level FlightAware Approximate
12:49AM 15.7703 -81.4446 134° Southeast  Level FlightAware Approximate
12:50AM 15.6753 -81.3420 134° Southeast  Level FlightAware Approximate
12:51AM 15.5802 -81.2394 134° Southeast  Level FlightAware Approximate
12:52AM 15.4851 -81.1370 134° Southeast  Level FlightAware Approximate
12:53AM 15.3900 -81.0347 134° Southeast  Level FlightAware Approximate
12:54AM 15.2948 -80.9324 134° Southeast  Level FlightAware Approximate
12:55AM 15.1995 -80.8302 134° Southeast  Level FlightAware Approximate
12:56AM 15.1042 -80.7282 134° Southeast  Level FlightAware Approximate
12:57AM 15.0089 -80.6262 134° Southeast  Level FlightAware Approximate
12:58AM 14.9019 -80.5377 142° Southeast  Level FlightAware Approximate
12:59AM 14.7968 -80.4531 142° Southeast  Level FlightAware Approximate
01:00AM 14.6915 -80.3686 142° Southeast  Level FlightAware Approximate
01:01AM 14.5862 -80.2842 142° Southeast  Level FlightAware Approximate
01:02AM 14.4809 -80.1999 142° Southeast  Level FlightAware Approximate
01:03AM 14.3756 -80.1156 142° Southeast  Level FlightAware Approximate
01:04AM 14.2703 -80.0314 142° Southeast  Level FlightAware Approximate
01:05AM 14.1649 -79.9473 142° Southeast  Level FlightAware Approximate
01:06AM 14.0595 -79.8633 142° Southeast  Level FlightAware Approximate
01:07AM 13.9540 -79.7793 142° Southeast  Level FlightAware Approximate
01:08AM 13.8485 -79.6954 142° Southeast  Level FlightAware Approximate
01:09AM 13.7432 -79.6114 142° Southeast  Level FlightAware Approximate
01:10AM 13.6378 -79.5275 142° Southeast  Level FlightAware Approximate
01:11AM 13.5324 -79.4436 142° Southeast  Level FlightAware Approximate
01:12AM 13.4270 -79.3598 142° Southeast  Level FlightAware Approximate
01:13AM 13.3215 -79.2761 142° Southeast  Level FlightAware Approximate
01:14AM 13.2161 -79.1925 142° Southeast  Level FlightAware Approximate
01:15AM 13.1105 -79.1089 142° Southeast  Level FlightAware Approximate
01:16AM 13.0050 -79.0254 142° Southeast  Level FlightAware Approximate
01:17AM 12.8995 -78.9420 142° Southeast  Level FlightAware Approximate
01:18AM 12.7939 -78.8586 142° Southeast  Level FlightAware Approximate
01:19AM 12.6883 -78.7753 142° Southeast  Level FlightAware Approximate
01:20AM 12.5826 -78.6921 142° Southeast  Level FlightAware Approximate
01:21AM 12.4770 -78.6089 142° Southeast  Level FlightAware Approximate
01:22AM 12.3713 -78.5259 142° Southeast  Level FlightAware Approximate
01:23AM 12.2656 -78.4428 142° Southeast  Level FlightAware Approximate
01:24AM 12.1598 -78.3599 143° Southeast  Level FlightAware Approximate
01:25AM 12.0541 -78.2770 143° Southeast  Level FlightAware Approximate
01:26AM 11.9483 -78.1942 143° Southeast  Level FlightAware Approximate
01:27AM 11.8425 -78.1114 143° Southeast  Level FlightAware Approximate
01:28AM 11.7366 -78.0287 143° Southeast  Level FlightAware Approximate
01:29AM 11.6308 -77.9461 143° Southeast  Level FlightAware Approximate
01:30AM 11.5249 -77.8636 143° Southeast  Level FlightAware Approximate
01:31AM 11.4188 -77.7809 143° Southeast  Level FlightAware Approximate
01:32AM 11.3127 -77.6983 143° Southeast  Level FlightAware Approximate
01:33AM 11.2065 -77.6158 143° Southeast  Level FlightAware Approximate
01:33AM 10.6430 -77.1220 143° Southeast 508 585 35,000  Level FlightAware
01:34AM 11.1004 -77.5333 143° Southeast  Level FlightAware Approximate
01:34AM 10.5490 -77.0340 137° Southeast 509 586 35,000  Level FlightAware
01:35AM 10.4520 -76.9450 138° Southeast 509 586 35,000  Level FlightAware
01:35AM 10.3860 -76.8830 137° Southeast 508 585 35,000  Level FlightAware
01:36AM 10.3250 -76.8260 137° Southeast 510 587 35,000  Level FlightAware
01:37AM 10.2320 -76.7400 138° Southeast 510 587 35,000  Level FlightAware
01:38AM 10.1430 -76.6570 137° Southeast 508 585 35,000  Level FlightAware
01:39AM 10.0480 -76.5690 138° Southeast 507 583 35,000  Level FlightAware
01:40AM 9.9330 -76.4630 138° Southeast 505 581 35,000  Level FlightAware
01:40AM 9.8720 -76.4070 138° Southeast 503 579 35,000  Level FlightAware
01:41AM 9.8000 -76.3400 137° Southeast 503 579 35,000  Level FlightAware
01:42AM 9.7190 -76.2660 138° Southeast 501 577 35,000  Level FlightAware
01:42AM 9.6500 -76.2010 137° Southeast 498 573 35,000  Level FlightAware
01:43AM 9.5810 -76.1380 138° Southeast 496 571 35,000  Level FlightAware
01:44AM 9.5170 -76.0780 137° Southeast 495 570 35,000  Level FlightAware
01:45AM 9.4360 -76.0040 138° Southeast 495 570 35,000  Level FlightAware
01:45AM 9.3600 -75.9340 138° Southeast 494 568 35,000  Level FlightAware
01:46AM 9.3000 -75.8790 138° Southeast 493 567 35,000  Level FlightAware
01:47AM 9.2080 -75.7940 138° Southeast 493 567 35,000  Level FlightAware
01:48AM 9.1080 -75.7030 138° Southeast 489 563 35,000  Level FlightAware
01:49AM 9.0310 -75.6320 138° Southeast 488 562 35,000  Level FlightAware
01:49AM 8.9590 -75.5650 137° Southeast 488 562 35,000  Level FlightAware
01:50AM 8.9020 -75.5130 138° Southeast 488 562 35,000  Level FlightAware
01:51AM 8.8050 -75.4240 138° Southeast 491 565 35,000  Level FlightAware
01:51AM 8.7500 -75.3740 138° Southeast 491 565 35,000  Level FlightAware
01:52AM 8.6450 -75.2770 138° Southeast 492 566 35,000  Level FlightAware
01:53AM 8.5710 -75.2100 138° Southeast 493 567 35,000  Level FlightAware
01:54AM 8.5070 -75.1510 138° Southeast 493 567 35,000  Level FlightAware
01:55AM 8.4250 -75.0760 138° Southeast 494 568 35,000  Level FlightAware
01:55AM 8.3630 -75.0190 138° Southeast 495 570 35,000  Level FlightAware
01:56AM 8.2700 -74.9340 138° Southeast 495 570 35,000  Level FlightAware
01:57AM 8.1960 -74.8670 138° Southeast 496 571 35,000  Level FlightAware
01:57AM 8.1370 -74.8120 137° Southeast 497 572 35,000  Level FlightAware
01:58AM 8.0730 -74.7540 138° Southeast 495 570 35,000  Level FlightAware
01:59AM 8.0000 -74.6880 138° Southeast 494 568 35,000  Level FlightAware
01:59AM 7.9330 -74.6270 138° Southeast 493 567 35,000  Level FlightAware
02:00AM 7.8450 -74.5460 138° Southeast 491 565 35,000  Level FlightAware
02:01AM 7.7680 -74.4770 138° Southeast 491 565 35,000  Level FlightAware
02:02AM 7.6930 -74.4080 138° Southeast 489 563 35,000  Level FlightAware
02:02AM 7.6260 -74.3480 138° Southeast 488 562 35,000  Level FlightAware
02:03AM 7.5600 -74.2870 138° Southeast 488 562 35,000  Level FlightAware
02:04AM 7.4910 -74.2250 138° Southeast 489 563 35,000  Level FlightAware
02:04AM 7.4160 -74.1570 138° Southeast 490 564 35,000  Level FlightAware
02:05AM 7.3400 -74.0880 138° Southeast 491 565 35,000  Level FlightAware
02:06AM 7.2810 -74.0350 138° Southeast 491 565 35,000  Level FlightAware
02:07AM 7.2120 -73.9720 138° Southeast 491 565 35,000  Level FlightAware
02:07AM 7.1280 -73.8960 138° Southeast 491 565 35,000  Level FlightAware
02:08AM 7.0670 -73.8400 138° Southeast 491 565 35,000  Level FlightAware
02:09AM 6.9880 -73.7840 145° Southeast 491 565 35,000  Level FlightAware
02:09AM 6.8960 -73.7330 151° Southeast 490 564 35,000  Level FlightAware
02:10AM 6.8160 -73.6900 152° Southeast 490 564 35,000  Level FlightAware
02:11AM 6.7360 -73.6470 152° Southeast 490 564 35,000  Level FlightAware
02:11AM 6.6580 -73.6050 152° Southeast 490 564 35,000  Level FlightAware
02:12AM 6.5740 -73.5590 151° Southeast 489 563 35,000  Level FlightAware
02:13AM 6.4900 -73.5140 152° Southeast 489 563 35,000  Level FlightAware
02:14AM 6.4020 -73.4660 152° Southeast 489 563 35,000  Level FlightAware
02:14AM 6.3220 -73.4230 152° Southeast 487 560 35,000  Level FlightAware
02:15AM 6.2300 -73.3740 152° Southeast 487 560 35,000  Level FlightAware
02:16AM 6.1490 -73.3300 152° Southeast 487 560 35,000  Level FlightAware
02:16AM 6.0640 -73.2830 151° Southeast 487 560 35,000  Level FlightAware
02:17AM 6.0040 -73.2500 151° Southeast 487 560 35,000  Level FlightAware
02:18AM 5.8620 -73.1700 151° Southeast 487 560 35,000  Level FlightAware
02:19AM 5.8000 -73.1360 151° Southeast 487 560 35,000  Level FlightAware
02:20AM 5.7310 -73.0970 151° Southeast 487 560 35,000  Level FlightAware
02:21AM 5.5630 -73.0140 154° Southeast 485 558 35,000  Level FlightAware
02:21AM 5.4830 -72.9710 152° Southeast 486 559 35,000  Level FlightAware
02:22AM 5.4270 -72.9410 152° Southeast 485 558 35,000  Level FlightAware
02:23AM 5.3230 -72.8850 152° Southeast 485 558 35,000  Level FlightAware
02:23AM 5.2410 -72.8410 152° Southeast 486 559 35,000  Level FlightAware
02:24AM 5.1590 -72.7970 152° Southeast 486 559 35,000  Level FlightAware
02:25AM 5.0540 -72.7400 152° Southeast 487 560 35,000  Level FlightAware
02:25AM 4.9940 -72.7060 151° Southeast 487 560 35,000  Level FlightAware
02:26AM 4.9130 -72.6610 151° Southeast 487 560 35,000  Level FlightAware
02:27AM 4.8510 -72.6270 151° Southeast 487 560 35,000  Level FlightAware
02:28AM 4.7710 -72.5820 151° Southeast 487 560 35,000  Level FlightAware
02:28AM 4.7090 -72.5480 151° Southeast 487 560 35,000  Level FlightAware
02:29AM 4.6490 -72.5140 151° Southeast 487 560 35,000  Level FlightAware
02:30AM 4.5680 -72.4700 152° Southeast 487 560 35,000  Level FlightAware
02:30AM 4.5080 -72.4360 151° Southeast 487 560 35,000  Level FlightAware
02:31AM 4.4480 -72.4020 151° Southeast 487 560 35,000  Level FlightAware
02:32AM 4.3880 -72.3690 151° Southeast 487 560 35,000  Level FlightAware
02:32AM 4.3070 -72.3240 151° Southeast 487 560 35,000  Level FlightAware
02:33AM 4.2470 -72.2910 151° Southeast 487 560 35,000  Level FlightAware
02:34AM 4.1660 -72.2460 151° Southeast 487 560 35,000  Level FlightAware
02:34AM 4.1060 -72.2120 151° Southeast 487 560 35,000  Level FlightAware
02:37AM 3.8506 -72.0749 145° Southeast  Level FlightAware Approximate
02:38AM 3.7417 -71.9981 145° Southeast  Level FlightAware Approximate
02:39AM 3.6327 -71.9212 145° Southeast  Level FlightAware Approximate
02:40AM 3.5237 -71.8444 145° Southeast  Level FlightAware Approximate
02:41AM 3.4148 -71.7675 145° Southeast  Level FlightAware Approximate
02:42AM 3.3058 -71.6907 145° Southeast  Level FlightAware Approximate
02:43AM 3.1968 -71.6140 145° Southeast  Level FlightAware Approximate
02:44AM 3.0878 -71.5372 145° Southeast  Level FlightAware Approximate
02:45AM 2.9788 -71.4604 145° Southeast  Level FlightAware Approximate
02:46AM 2.8698 -71.3837 145° Southeast  Level FlightAware Approximate
02:47AM 2.7608 -71.3070 145° Southeast  Level FlightAware Approximate
02:48AM 2.6518 -71.2303 145° Southeast  Level FlightAware Approximate
02:49AM 2.5428 -71.1536 145° Southeast  Level FlightAware Approximate
02:50AM 2.4338 -71.0769 145° Southeast  Level FlightAware Approximate
02:51AM 2.3248 -71.0002 145° Southeast  Level FlightAware Approximate
02:52AM 2.2157 -70.9236 145° Southeast  Level FlightAware Approximate
02:53AM 2.1067 -70.8469 145° Southeast  Level FlightAware Approximate
02:54AM 1.9977 -70.7703 145° Southeast  Level FlightAware Approximate
02:55AM 1.8886 -70.6936 145° Southeast  Level FlightAware Approximate
02:56AM 1.7796 -70.6170 145° Southeast  Level FlightAware Approximate
02:57AM 1.6706 -70.5404 145° Southeast  Level FlightAware Approximate
02:58AM 1.5615 -70.4638 145° Southeast  Level FlightAware Approximate
02:59AM 1.4525 -70.3872 145° Southeast  Level FlightAware Approximate
03:00AM 1.3434 -70.3106 145° Southeast  Level FlightAware Approximate
03:01AM 1.2344 -70.2341 145° Southeast  Level FlightAware Approximate
03:02AM 1.1348 -70.1456 138° Southeast  Level FlightAware Approximate
03:03AM 1.0353 -70.0570 138° Southeast  Level FlightAware Approximate
03:04AM 0.9357 -69.9684 138° Southeast  Level FlightAware Approximate
03:05AM 0.8362 -69.8798 138° Southeast  Level FlightAware Approximate
03:06AM 0.7367 -69.7912 138° Southeast  Level FlightAware Approximate
03:07AM 0.6371 -69.7026 138° Southeast  Level FlightAware Approximate
03:08AM 0.5376 -69.6140 138° Southeast  Level FlightAware Approximate
03:09AM 0.4381 -69.5254 138° Southeast  Level FlightAware Approximate
03:10AM 0.3386 -69.4368 138° Southeast  Level FlightAware Approximate
03:11AM 0.2390 -69.3482 138° Southeast  Level FlightAware Approximate
03:12AM 0.1395 -69.2596 138° Southeast  Level FlightAware Approximate
03:13AM 0.0399 -69.1711 138° Southeast  Level FlightAware Approximate
03:14AM -0.0596 -69.0825 138° Southeast  Level FlightAware Approximate
03:15AM -0.1591 -68.9939 138° Southeast  Level FlightAware Approximate
03:16AM -0.2587 -68.9053 138° Southeast  Level FlightAware Approximate
03:17AM -0.3582 -68.8167 138° Southeast  Level FlightAware Approximate
03:18AM -0.4577 -68.7282 138° Southeast  Level FlightAware Approximate
03:19AM -0.5573 -68.6396 138° Southeast  Level FlightAware Approximate
03:20AM -0.6568 -68.5510 138° Southeast  Level FlightAware Approximate
03:21AM -0.7563 -68.4624 138° Southeast  Level FlightAware Approximate
03:22AM -0.8559 -68.3738 138° Southeast  Level FlightAware Approximate
03:23AM -0.9554 -68.2852 138° Southeast  Level FlightAware Approximate
03:24AM -1.0549 -68.1966 138° Southeast  Level FlightAware Approximate
03:25AM -1.1544 -68.1080 138° Southeast  Level FlightAware Approximate
03:26AM -1.2540 -68.0193 138° Southeast  Level FlightAware Approximate
03:27AM -1.3535 -67.9307 138° Southeast  Level FlightAware Approximate
03:28AM -1.4530 -67.8421 138° Southeast  Level FlightAware Approximate
03:29AM -1.5525 -67.7535 138° Southeast  Level FlightAware Approximate
03:30AM -1.6520 -67.6648 138° Southeast  Level FlightAware Approximate
03:31AM -1.7515 -67.5761 138° Southeast  Level FlightAware Approximate
03:32AM -1.8510 -67.4875 138° Southeast  Level FlightAware Approximate
03:33AM -1.9505 -67.3988 138° Southeast  Level FlightAware Approximate
03:34AM -2.0500 -67.3101 138° Southeast  Level FlightAware Approximate
03:35AM -2.1495 -67.2214 138° Southeast  Level FlightAware Approximate
03:36AM -2.2490 -67.1327 138° Southeast  Level FlightAware Approximate
03:37AM -2.3484 -67.0440 138° Southeast  Level FlightAware Approximate
03:38AM -2.4479 -66.9553 138° Southeast  Level FlightAware Approximate
03:39AM -2.5473 -66.8665 138° Southeast  Level FlightAware Approximate
03:40AM -2.6468 -66.7777 138° Southeast  Level FlightAware Approximate
03:41AM -2.7463 -66.6890 138° Southeast  Level FlightAware Approximate
03:42AM -2.8457 -66.6002 138° Southeast  Level FlightAware Approximate
03:43AM -2.9451 -66.5114 138° Southeast  Level FlightAware Approximate
03:44AM -3.0446 -66.4225 138° Southeast  Level FlightAware Approximate
03:45AM -3.1440 -66.3337 138° Southeast  Level FlightAware Approximate
03:46AM -3.2434 -66.2449 138° Southeast  Level FlightAware Approximate
03:47AM -3.3428 -66.1560 138° Southeast  Level FlightAware Approximate
03:48AM -3.4422 -66.0671 138° Southeast  Level FlightAware Approximate
03:49AM -3.5416 -65.9782 138° Southeast  Level FlightAware Approximate
03:50AM -3.6410 -65.8893 138° Southeast  Level FlightAware Approximate
03:51AM -3.7404 -65.8003 138° Southeast  Level FlightAware Approximate
03:52AM -3.8397 -65.7113 138° Southeast  Level FlightAware Approximate
03:53AM -3.9391 -65.6223 138° Southeast  Level FlightAware Approximate
03:54AM -4.0384 -65.5333 138° Southeast  Level FlightAware Approximate
03:55AM -4.1377 -65.4443 138° Southeast  Level FlightAware Approximate
03:56AM -4.2371 -65.3552 138° Southeast  Level FlightAware Approximate
03:57AM -4.3364 -65.2662 138° Southeast  Level FlightAware Approximate
03:58AM -4.4357 -65.1771 138° Southeast  Level FlightAware Approximate
03:59AM -4.5349 -65.0880 138° Southeast  Level FlightAware Approximate
04:00AM -4.6342 -64.9988 138° Southeast  Level FlightAware Approximate
04:01AM -4.7335 -64.9096 138° Southeast  Level FlightAware Approximate
04:02AM -4.8328 -64.8204 138° Southeast  Level FlightAware Approximate
04:03AM -4.9320 -64.7312 138° Southeast  Level FlightAware Approximate
04:04AM -5.0312 -64.6420 138° Southeast  Level FlightAware Approximate
04:05AM -5.1305 -64.5527 138° Southeast  Level FlightAware Approximate
04:06AM -5.2297 -64.4634 138° Southeast  Level FlightAware Approximate
04:07AM -5.3289 -64.3740 138° Southeast  Level FlightAware Approximate
04:08AM -5.4281 -64.2847 138° Southeast  Level FlightAware Approximate
04:09AM -5.5272 -64.1953 138° Southeast  Level FlightAware Approximate
04:10AM -5.6264 -64.1059 138° Southeast  Level FlightAware Approximate
04:11AM -5.7256 -64.0164 138° Southeast  Level FlightAware Approximate
04:12AM -5.8247 -63.9269 138° Southeast  Level FlightAware Approximate
04:13AM -5.9238 -63.8374 138° Southeast  Level FlightAware Approximate
04:14AM -6.0229 -63.7478 138° Southeast  Level FlightAware Approximate
04:15AM -6.1220 -63.6583 138° Southeast  Level FlightAware Approximate
04:16AM -6.2211 -63.5687 138° Southeast  Level FlightAware Approximate
04:17AM -6.3201 -63.4790 138° Southeast  Level FlightAware Approximate
04:18AM -6.4192 -63.3893 138° Southeast  Level FlightAware Approximate
04:19AM -6.5182 -63.2996 138° Southeast  Level FlightAware Approximate
04:20AM -6.6172 -63.2099 138° Southeast  Level FlightAware Approximate
04:21AM -6.7162 -63.1201 138° Southeast  Level FlightAware Approximate
04:22AM -6.8152 -63.0302 138° Southeast  Level FlightAware Approximate
04:23AM -6.9141 -62.9404 138° Southeast  Level FlightAware Approximate
04:24AM -7.0131 -62.8505 138° Southeast  Level FlightAware Approximate
04:25AM -7.1120 -62.7605 138° Southeast  Level FlightAware Approximate
04:26AM -7.2109 -62.6706 138° Southeast  Level FlightAware Approximate
04:27AM -7.3098 -62.5805 138° Southeast  Level FlightAware Approximate
04:28AM -7.4087 -62.4905 138° Southeast  Level FlightAware Approximate
04:29AM -7.5076 -62.4004 138° Southeast  Level FlightAware Approximate
04:30AM -7.6064 -62.3102 138° Southeast  Level FlightAware Approximate
04:31AM -7.7052 -62.2201 138° Southeast  Level FlightAware Approximate
04:32AM -7.8040 -62.1298 138° Southeast  Level FlightAware Approximate
04:33AM -7.9028 -62.0396 138° Southeast  Level FlightAware Approximate
04:34AM -8.0016 -61.9493 138° Southeast  Level FlightAware Approximate
04:35AM -8.1003 -61.8589 138° Southeast  Level FlightAware Approximate
04:36AM -8.1988 -61.7687 138° Southeast  Level FlightAware Approximate
04:37AM -8.2974 -61.6784 138° Southeast  Level FlightAware Approximate
04:38AM -8.3959 -61.5881 138° Southeast  Level FlightAware Approximate
04:39AM -8.4944 -61.4977 138° Southeast  Level FlightAware Approximate
04:40AM -8.5928 -61.4073 138° Southeast  Level FlightAware Approximate
04:41AM -8.6913 -61.3168 138° Southeast  Level FlightAware Approximate
04:42AM -8.7897 -61.2263 138° Southeast  Level FlightAware Approximate
04:43AM -8.8881 -61.1358 138° Southeast  Level FlightAware Approximate
04:44AM -8.9865 -61.0452 138° Southeast  Level FlightAware Approximate
04:45AM -9.0849 -60.9545 138° Southeast  Level FlightAware Approximate
04:46AM -9.1832 -60.8638 138° Southeast  Level FlightAware Approximate
04:47AM -9.2815 -60.7730 138° Southeast  Level FlightAware Approximate
04:48AM -9.3798 -60.6822 138° Southeast  Level FlightAware Approximate
04:49AM -9.4781 -60.5914 138° Southeast  Level FlightAware Approximate
04:50AM -9.5763 -60.5005 138° Southeast  Level FlightAware Approximate
04:51AM -9.6745 -60.4095 138° Southeast  Level FlightAware Approximate
04:52AM -9.7727 -60.3185 138° Southeast  Level FlightAware Approximate
04:53AM -9.8709 -60.2274 138° Southeast  Level FlightAware Approximate
04:54AM -9.9691 -60.1363 138° Southeast  Level FlightAware Approximate
04:55AM -10.0672 -60.0451 138° Southeast  Level FlightAware Approximate
04:56AM -10.1654 -59.9537 138° Southeast  Level FlightAware Approximate
04:57AM -10.2637 -59.8622 138° Southeast  Level FlightAware Approximate
04:58AM -10.3619 -59.7707 137° Southeast  Level FlightAware Approximate
04:59AM -10.4601 -59.6792 137° Southeast  Level FlightAware Approximate
05:00AM -10.5583 -59.5875 137° Southeast  Level FlightAware Approximate
05:01AM -10.6564 -59.4958 137° Southeast  Level FlightAware Approximate
05:02AM -10.7545 -59.4041 137° Southeast  Level FlightAware Approximate
05:03AM -10.8526 -59.3123 137° Southeast  Level FlightAware Approximate
05:04AM -10.9507 -59.2204 137° Southeast  Level FlightAware Approximate
05:05AM -11.0487 -59.1285 137° Southeast  Level FlightAware Approximate
05:06AM -11.1467 -59.0365 137° Southeast  Level FlightAware Approximate
05:07AM -11.2447 -58.9445 137° Southeast  Level FlightAware Approximate
05:08AM -11.3427 -58.8524 137° Southeast  Level FlightAware Approximate
05:09AM -11.4406 -58.7602 137° Southeast  Level FlightAware Approximate
05:10AM -11.5385 -58.6679 137° Southeast  Level FlightAware Approximate
05:11AM -11.6363 -58.5756 137° Southeast  Level FlightAware Approximate
05:12AM -11.7342 -58.4833 137° Southeast  Level FlightAware Approximate
05:13AM -11.8320 -58.3909 137° Southeast  Level FlightAware Approximate
05:14AM -11.9298 -58.2984 137° Southeast  Level FlightAware Approximate
05:15AM -12.0275 -58.2058 137° Southeast  Level FlightAware Approximate
05:16AM -12.1252 -58.1132 137° Southeast  Level FlightAware Approximate
05:17AM -12.2229 -58.0205 137° Southeast  Level FlightAware Approximate
05:18AM -12.3206 -57.9277 137° Southeast  Level FlightAware Approximate
05:19AM -12.4182 -57.8348 137° Southeast  Level FlightAware Approximate
05:20AM -12.5158 -57.7419 137° Southeast  Level FlightAware Approximate
05:21AM -12.6133 -57.6489 137° Southeast  Level FlightAware Approximate
05:22AM -12.7109 -57.5559 137° Southeast  Level FlightAware Approximate
05:23AM -12.8084 -57.4628 137° Southeast  Level FlightAware Approximate
05:24AM -12.9058 -57.3696 137° Southeast  Level FlightAware Approximate
05:25AM -13.0033 -57.2763 137° Southeast  Level FlightAware Approximate
05:26AM -13.1007 -57.1830 137° Southeast  Level FlightAware Approximate
05:27AM -13.1980 -57.0896 137° Southeast  Level FlightAware Approximate
05:28AM -13.2954 -56.9961 137° Southeast  Level FlightAware Approximate
05:29AM -13.3926 -56.9025 137° Southeast  Level FlightAware Approximate
05:30AM -13.4899 -56.8089 137° Southeast  Level FlightAware Approximate
05:31AM -13.5871 -56.7152 137° Southeast  Level FlightAware Approximate
05:32AM -13.6843 -56.6214 137° Southeast  Level FlightAware Approximate
05:33AM -13.7815 -56.5275 137° Southeast  Level FlightAware Approximate
05:34AM -13.8786 -56.4336 137° Southeast  Level FlightAware Approximate
05:35AM -13.9757 -56.3395 137° Southeast  Level FlightAware Approximate
05:36AM -14.0727 -56.2454 137° Southeast  Level FlightAware Approximate
05:37AM -14.1697 -56.1512 137° Southeast  Level FlightAware Approximate
05:38AM -14.2667 -56.0570 137° Southeast  Level FlightAware Approximate
05:39AM -14.3636 -55.9626 137° Southeast  Level FlightAware Approximate
05:40AM -14.4605 -55.8682 137° Southeast  Level FlightAware Approximate
05:41AM -14.5574 -55.7737 137° Southeast  Level FlightAware Approximate
05:42AM -14.6542 -55.6791 137° Southeast  Level FlightAware Approximate
05:43AM -14.7510 -55.5844 137° Southeast  Level FlightAware Approximate
05:44AM -14.8477 -55.4897 137° Southeast  Level FlightAware Approximate
05:45AM -14.9445 -55.3948 137° Southeast  Level FlightAware Approximate
05:46AM -15.0411 -55.2999 137° Southeast  Level FlightAware Approximate
05:47AM -15.1378 -55.2049 136° Southeast  Level FlightAware Approximate
05:48AM -15.2344 -55.1098 136° Southeast  Level FlightAware Approximate
05:49AM -15.3309 -55.0146 136° Southeast  Level FlightAware Approximate
05:50AM -15.4274 -54.9193 136° Southeast  Level FlightAware Approximate
05:51AM -15.5239 -54.8239 136° Southeast  Level FlightAware Approximate
05:52AM -15.6203 -54.7285 136° Southeast  Level FlightAware Approximate
05:53AM -15.7167 -54.6329 136° Southeast  Level FlightAware Approximate
05:54AM -15.8130 -54.5373 136° Southeast  Level FlightAware Approximate
05:55AM -15.9093 -54.4415 136° Southeast  Level FlightAware Approximate
05:56AM -16.0056 -54.3457 136° Southeast  Level FlightAware Approximate
05:57AM -16.1018 -54.2498 136° Southeast  Level FlightAware Approximate
05:58AM -16.1980 -54.1538 136° Southeast  Level FlightAware Approximate
05:59AM -16.2941 -54.0577 136° Southeast  Level FlightAware Approximate
06:00AM -16.3902 -53.9615 136° Southeast  Level FlightAware Approximate
06:01AM -16.4862 -53.8652 136° Southeast  Level FlightAware Approximate
06:02AM -16.5823 -53.7688 136° Southeast  Level FlightAware Approximate
06:03AM -16.6782 -53.6724 136° Southeast  Level FlightAware Approximate
06:04AM -16.7741 -53.5758 136° Southeast  Level FlightAware Approximate
06:05AM -16.8700 -53.4791 136° Southeast  Level FlightAware Approximate
06:06AM -16.9658 -53.3823 136° Southeast  Level FlightAware Approximate
06:07AM -17.0616 -53.2855 136° Southeast  Level FlightAware Approximate
06:08AM -17.1573 -53.1885 136° Southeast  Level FlightAware Approximate
06:09AM -17.2530 -53.0914 136° Southeast  Level FlightAware Approximate
06:10AM -17.3486 -52.9943 136° Southeast  Level FlightAware Approximate
06:11AM -17.4442 -52.8970 136° Southeast  Level FlightAware Approximate
06:12AM -17.5398 -52.7996 136° Southeast  Level FlightAware Approximate
06:13AM -17.6353 -52.7021 136° Southeast  Level FlightAware Approximate
06:14AM -17.7307 -52.6045 136° Southeast  Level FlightAware Approximate
06:15AM -17.8261 -52.5069 136° Southeast  Level FlightAware Approximate
06:16AM -17.9215 -52.4091 136° Southeast  Level FlightAware Approximate
06:17AM -18.0168 -52.3112 136° Southeast  Level FlightAware Approximate
06:18AM -18.1120 -52.2132 136° Southeast  Level FlightAware Approximate
06:19AM -18.2072 -52.1151 136° Southeast  Level FlightAware Approximate
06:20AM -18.3024 -52.0168 136° Southeast  Level FlightAware Approximate
06:21AM -18.3975 -51.9185 136° Southeast  Level FlightAware Approximate
06:22AM -18.4925 -51.8201 136° Southeast  Level FlightAware Approximate
06:22AM -18.8730 -50.8090 135° Southeast 478 550 37,000  Level FlightAware
06:22AM -18.9340 -50.7430 134° Southeast 478 550 37,000  Level FlightAware
06:23AM -18.5875 -51.7215 135° Southeast  Level FlightAware Approximate
06:23AM -18.9990 -50.6700 133° Southeast 478 550 37,000  Level FlightAware
06:24AM -19.0840 -50.5790 135° Southeast 480 552 37,000  Level FlightAware
06:25AM -19.1500 -50.5070 134° Southeast 480 552 37,000  Level FlightAware
06:25AM -19.2070 -50.4440 134° Southeast 480 552 37,000  Level FlightAware
06:26AM -19.2850 -50.3590 134° Southeast 480 552 37,000  Level FlightAware
06:27AM -19.3450 -50.2930 134° Southeast 480 552 37,000  Level FlightAware
06:28AM -19.4140 -50.2170 134° Southeast 480 552 37,000  Level FlightAware
06:28AM -19.4770 -50.1480 134° Southeast 480 552 37,000  Level FlightAware
06:29AM -19.5410 -50.0780 134° Southeast 480 552 37,000  Level FlightAware
06:30AM -19.6050 -50.0070 134° Southeast 480 552 37,000  Level FlightAware
06:30AM -19.6620 -49.9450 134° Southeast 480 552 37,000  Level FlightAware
06:31AM -19.7360 -49.8640 134° Southeast 480 552 37,000  Level FlightAware
06:32AM -19.7930 -49.8020 134° Southeast 480 552 37,000  Level FlightAware
06:32AM -19.8670 -49.7200 134° Southeast 480 552 37,000  Level FlightAware
06:33AM -19.9310 -49.6500 134° Southeast 480 552 37,000  Level FlightAware
06:34AM -19.9910 -49.5840 134° Southeast 481 554 37,000  Level FlightAware
06:35AM -20.0610 -49.5080 134° Southeast 482 555 37,000  Level FlightAware
06:35AM -20.1300 -49.4320 134° Southeast 483 556 37,000  Level FlightAware
06:36AM -20.1920 -49.3660 135° Southeast 480 552 37,000  Level FlightAware
06:37AM -20.2670 -49.2970 139° Southeast 479 551 37,000  Level FlightAware
06:37AM -20.3350 -49.2360 140° Southeast 481 554 37,000  Level FlightAware
06:38AM -20.4090 -49.1660 138° Southeast 482 555 37,000  Level FlightAware
06:39AM -20.4750 -49.1030 138° Southeast 482 555 37,000  Level FlightAware
06:39AM -20.5460 -49.0360 139° Southeast 482 555 37,000  Level FlightAware
06:40AM -20.6180 -48.9670 138° Southeast 483 556 37,000  Level FlightAware
06:41AM -20.6850 -48.9040 139° Southeast 483 556 37,000  Level FlightAware
06:42AM -20.7600 -48.8340 139° Southeast 483 556 37,000  Level FlightAware
06:42AM -20.8270 -48.7710 139° Southeast 484 557 37,000  Level FlightAware
06:43AM -20.9000 -48.7020 139° Southeast 484 557 37,000  Level FlightAware
06:44AM -20.9690 -48.6370 139° Southeast 485 558 37,000  Level FlightAware
06:44AM -21.0290 -48.5800 138° Southeast 485 558 37,000  Level FlightAware
06:45AM -21.0960 -48.5170 139° Southeast 485 558 37,000  Level FlightAware
06:46AM -21.1710 -48.4460 139° Southeast 485 558 37,000  Level FlightAware
06:46AM -21.2280 -48.3930 139° Southeast 486 559 37,000  Level FlightAware
06:47AM -21.3030 -48.3220 139° Southeast 487 560 37,000  Level FlightAware
06:48AM -21.3690 -48.2580 138° Southeast 487 560 37,000  Level FlightAware
06:48AM -21.4440 -48.1870 139° Southeast 487 560 37,000  Level FlightAware
06:49AM -21.5070 -48.1280 139° Southeast 487 560 37,000  Level FlightAware
06:50AM -21.5860 -48.0520 138° Southeast 487 560 37,000  Level FlightAware
06:50AM -21.6530 -47.9880 138° Southeast 487 560 37,000  Level FlightAware
06:51AM -21.7280 -47.9170 139° Southeast 487 560 37,000  Level FlightAware
06:52AM -21.7950 -47.8520 138° Southeast 487 560 37,000 -780 Level FlightAware
06:52AM -21.8650 -47.7850 138° Southeast 485 558 36,000 -2,100 Descending FlightAware
06:53AM -21.9360 -47.7170 138° Southeast 490 564 34,100 -2,520 Descending FlightAware
06:54AM -22.0100 -47.6460 138° Southeast 484 557 32,400 -2,220 Descending FlightAware
06:55AM -22.0760 -47.5820 138° Southeast 472 543 31,000 -2,100 Descending FlightAware
06:55AM -22.1340 -47.5260 138° Southeast 463 533 29,800 -1,980 Descending FlightAware
06:56AM -22.2040 -47.4590 138° Southeast 453 521 28,400 -1,980 Descending FlightAware
06:57AM -22.2700 -47.3960 139° Southeast 443 510 27,000 -1,980 Descending FlightAware
06:57AM -22.3290 -47.3390 138° Southeast 436 502 25,800 -1,920 Descending FlightAware
06:58AM -22.3930 -47.2770 138° Southeast 431 496 24,400 -1,860 Descending FlightAware
06:59AM -22.4520 -47.2180 137° Southeast 424 488 23,200 -1,860 Descending FlightAware
06:59AM -22.5170 -47.1560 139° Southeast 416 479 21,800 -1,920 Descending FlightAware
07:00AM -22.5610 -47.1140 139° Southeast 409 471 20,800 -1,920 Descending FlightAware
07:01AM -22.6320 -47.0740 153° Southeast 393 452 19,500 -1,860 Descending FlightAware
07:01AM -22.6970 -47.0470 159° South 383 441 18,300 -1,800 Descending FlightAware
07:02AM -22.7750 -47.0150 159° South 375 432 16,900 -1,800 Descending FlightAware
07:03AM -22.8390 -46.9880 159° South 370 426 15,700 -1,860 Descending FlightAware
07:03AM -22.9060 -46.9600 159° South 365 420 14,400 -1,980 Descending FlightAware
07:04AM -22.9760 -46.9300 158° South 354 407 12,900 -1,980 Descending FlightAware
07:05AM -23.0340 -46.9050 158° South 323 372 11,700 -1,740 Descending FlightAware
07:06AM -23.0930 -46.8810 159° South 295 339 10,500 -1,380 Descending FlightAware
07:06AM -23.1410 -46.8610 159° South 268 308 9,800 -1,140 Descending FlightAware
07:07AM -23.1770 -46.8460 159° South 265 305 9,200 -1,140 Descending FlightAware
07:07AM -23.2080 -46.8320 157° South 262 302 8,700 -1,200 Descending FlightAware
07:08AM -23.2400 -46.8190 160° South 259 298 8,100 -1,080 Descending FlightAware
07:08AM -23.2700 -46.8060 158° South 251 289 7,700 -660 Descending FlightAware
07:09AM -23.3000 -46.7930 158° South 232 267 7,500 -360 Descending FlightAware
07:09AM -23.3260 -46.7820 159° South 214 246 7,400 -360 Descending FlightAware
07:10AM -23.3500 -46.7720 159° South 209 241 7,200 -480 Descending FlightAware
07:10AM -23.3760 -46.7590 155° Southeast 209 241 7,000 -660 Descending FlightAware
07:10AM -23.3970 -46.7400 140° Southeast 213 245 6,600 -1,020 Descending FlightAware
07:11AM -23.4180 -46.7200 139° Southeast 220 253 6,100 -1,320 Descending FlightAware
07:11AM -23.4360 -46.7030 139° Southeast 228 262 5,500 -1,260 Descending FlightAware
07:12AM -23.4530 -46.6800 129° Southeast 217 250 5,100 -900 Descending FlightAware
07:12AM -23.4650 -46.6530 116° Southeast 217 250 4,700 -780 Descending FlightAware
07:13AM -23.4740 -46.6230 108° East 203 234 4,400 -480 Descending FlightAware
07:13AM -23.4690 -46.6000 77° East 186 214 4,300 -720 Descending FlightAware
07:14AM -23.4630 -46.5760 75° East 175 201 3,800 -960 Descending FlightAware
07:14AM -23.4570 -46.5560 72° East 163 188 3,500 -840 Descending FlightAware
07:14AM -23.4520 -46.5350 75° East 150 173 3,100 -900 Descending FlightAware
07:15AM -23.4480 -46.5200 74° East 145 167 2,800 -780 Descending FlightAware
07:15AM -23.4420 -46.4980 73° East 142 163 2,400 -720 Descending FlightAware
07:16AM -23.4370 -46.4810 72° East 144 166 2,100 -720 Descending FlightAware
07:16AM -23.4320 -46.4610 75° East 98 113 -2,940 Descending FlightAware
07:18AM -23.4280 -46.4620 347° North 14 16  Level FlightAware
07:19AM -23.4270 -46.4640 299° West 14 16  Level FlightAware
07:19AM -23.4280 -46.4670 250° West 14 16  Level FlightAware
07:20AM -23.4290 -46.4690 241° Southwest 16 18  Level FlightAware
07:20AM -23.4290 -46.4710 270° West 16 18  Level FlightAware
07:21AM -23.4300 -46.4730 241° Southwest 15 17  Level FlightAware
07:21AM -23.4300 -46.4750 270° West 13 15  Level FlightAware
07:22AM -23.4310 -46.4760 223° Southwest 11 13  Level FlightAware
07:24AM -23.4300 -46.4780 299° West 12 14  Level FlightAware
07:24AM -23.4280 -46.4790 335° Northwest 9 10  Level FlightAware